createdAt,value
2019-05-30T00:00:51.587Z,100882.08
2019-05-30T00:03:19.331Z,100884.97
2019-05-30T00:05:48.185Z,100891.22
2019-05-30T00:08:15.944Z,100890.63
2019-05-30T00:10:43.721Z,100889.86
2019-05-30T00:13:11.534Z,100890.67
2019-05-30T00:15:40.937Z,100893.23
2019-05-30T00:18:08.679Z,100890.02
2019-05-30T00:20:38.268Z,100883.59
2019-05-30T00:23:07.204Z,100886.52
2019-05-30T00:25:34.973Z,100895.33
2019-05-30T00:28:05.172Z,100897.05
2019-05-30T00:30:32.689Z,100885.99
2019-05-30T00:33:00.763Z,100890.70
2019-05-30T00:35:28.608Z,100888.13
2019-05-30T00:37:57.649Z,100881.17
2019-05-30T00:40:26.705Z,100885.13
2019-05-30T00:42:55.811Z,100894.55
2019-05-30T00:45:23.740Z,100890.42
2019-05-30T00:47:51.485Z,100886.28
2019-05-30T00:50:20.364Z,100883.86
2019-05-30T00:52:49.820Z,100884.34
2019-05-30T00:55:17.588Z,100886.01
2019-05-30T00:57:46.544Z,100891.27
2019-05-30T01:00:14.857Z,100890.30
2019-05-30T01:02:42.636Z,100886.90
2019-05-30T01:05:10.456Z,100889.34
2019-05-30T01:07:38.215Z,100897.23
2019-05-30T01:10:07.598Z,100891.81
2019-05-30T01:12:35.562Z,100896.39
2019-05-30T01:15:05.103Z,100894.67
2019-05-30T01:17:33.104Z,100893.36
2019-05-30T01:20:01.165Z,100889.77
2019-05-30T01:22:29.118Z,100889.59
2019-05-30T01:24:57.148Z,100883.02
2019-05-30T01:27:24.965Z,100886.05
2019-05-30T01:29:52.702Z,100892.92
2019-05-30T01:32:29.549Z,100889.78
2019-05-30T01:34:59.598Z,100886.09
2019-05-30T01:37:27.770Z,100878.88
2019-05-30T01:39:55.874Z,100878.89
2019-05-30T01:42:23.647Z,100871.27
2019-05-30T01:44:51.385Z,100874.30
2019-05-30T01:47:19.165Z,100878.13
2019-05-30T01:49:46.912Z,100885.00
2019-05-30T01:52:14.668Z,100871.97
2019-05-30T01:54:42.426Z,100878.60
2019-05-30T01:57:10.231Z,100876.94
2019-05-30T01:59:38.004Z,100873.68
2019-05-30T02:02:07.076Z,100871.94
2019-05-30T02:04:35.157Z,100871.49
2019-05-30T02:07:03.375Z,100872.62
2019-05-30T02:09:31.221Z,100866.41
2019-05-30T02:11:59.325Z,100869.19
2019-05-30T02:14:27.119Z,100867.72
2019-05-30T02:16:54.856Z,100870.22
2019-05-30T02:19:22.617Z,100865.31
2019-05-30T02:21:50.400Z,100862.55
2019-05-30T02:24:18.171Z,100869.51
2019-05-30T02:26:45.907Z,100870.17
2019-05-30T02:29:13.714Z,100874.18
2019-05-30T02:31:41.456Z,100877.06
2019-05-30T02:34:11.392Z,100875.44
2019-05-30T02:36:38.922Z,100880.17
2019-05-30T02:39:09.635Z,100876.56
2019-05-30T02:41:37.048Z,100873.50
2019-05-30T02:44:05.481Z,100882.00
2019-05-30T02:46:33.809Z,100873.70
2019-05-30T02:49:03.908Z,100875.78
2019-05-30T02:51:31.235Z,100877.36
2019-05-30T02:53:59.000Z,100874.11
2019-05-30T02:56:26.724Z,100878.42
2019-05-30T02:58:54.466Z,100876.38
2019-05-30T03:01:22.179Z,100878.20
2019-05-30T03:03:49.952Z,100881.31
2019-05-30T03:06:17.679Z,100887.95
2019-05-30T03:08:45.760Z,100890.26
2019-05-30T03:11:15.438Z,100883.94
2019-05-30T03:13:43.205Z,100892.42
2019-05-30T03:16:11.887Z,100892.41
2019-05-30T03:18:40.696Z,100891.34
2019-05-30T03:21:10.572Z,100894.45
2019-05-30T03:23:38.162Z,100894.46
2019-05-30T03:26:09.157Z,100895.30
2019-05-30T03:28:35.666Z,100896.97
2019-05-30T03:31:10.434Z,100895.26
2019-05-30T03:33:41.011Z,100901.58
2019-05-30T03:36:10.880Z,100903.05
2019-05-30T03:38:34.802Z,100903.75
2019-05-30T03:41:04.587Z,100904.81
2019-05-30T03:43:32.252Z,100909.00
2019-05-30T03:46:01.552Z,100907.47
2019-05-30T03:48:30.469Z,100910.43
2019-05-30T03:50:59.928Z,100913.75
2019-05-30T03:53:27.885Z,100911.84
2019-05-30T03:56:04.612Z,100912.68
2019-05-30T03:58:49.686Z,100910.98
2019-05-30T04:01:25.600Z,100912.92
2019-05-30T04:04:13.788Z,100914.48
2019-05-30T04:06:46.113Z,100910.53
2019-05-30T04:09:22.363Z,100915.20
2019-05-30T04:12:03.534Z,100915.92
2019-05-30T04:14:36.421Z,100916.53
2019-05-30T04:17:04.204Z,100924.50
2019-05-30T04:19:31.929Z,100924.50
2019-05-30T04:21:59.649Z,100924.48
2019-05-30T04:24:27.573Z,100925.30
2019-05-30T04:26:55.401Z,100931.28
2019-05-30T04:29:23.641Z,100934.76
2019-05-30T04:31:51.390Z,100928.18
2019-05-30T04:34:19.629Z,100926.84
2019-05-30T04:36:47.509Z,100936.28
2019-05-30T04:39:17.074Z,100933.79
2019-05-30T04:41:45.187Z,100930.58
2019-05-30T04:44:14.492Z,100942.28
2019-05-30T04:46:42.613Z,100937.34
2019-05-30T04:49:12.195Z,100943.70
2019-05-30T04:51:40.066Z,100944.91
2019-05-30T04:54:07.890Z,100943.22
2019-05-30T04:56:35.640Z,100945.50
2019-05-30T04:59:03.374Z,100939.01
2019-05-30T05:01:31.548Z,100939.14
2019-05-30T05:03:59.316Z,100942.19
2019-05-30T05:06:27.071Z,100934.56
2019-05-30T05:08:54.803Z,100945.31
2019-05-30T05:11:25.068Z,100935.36
2019-05-30T05:13:52.276Z,100947.08
2019-05-30T05:16:33.639Z,100948.87
2019-05-30T05:18:49.689Z,100950.94
2019-05-30T05:21:17.429Z,100950.52
2019-05-30T05:23:45.182Z,100961.25
2019-05-30T05:26:13.405Z,100957.20
2019-05-30T05:28:41.287Z,100951.11
2019-05-30T05:31:09.263Z,100961.73
2019-05-30T05:33:37.000Z,100956.09
2019-05-30T05:36:04.821Z,100963.50
2019-05-30T05:38:32.548Z,100960.47
2019-05-30T05:41:00.340Z,100964.67
2019-05-30T05:43:28.700Z,100966.98
2019-05-30T05:45:56.544Z,100968.93
2019-05-30T05:48:24.720Z,100970.78
2019-05-30T05:50:52.642Z,100972.09
2019-05-30T05:53:20.864Z,100971.45
2019-05-30T05:55:48.791Z,100981.70
2019-05-30T05:58:16.786Z,100977.59
2019-05-30T06:00:44.706Z,100975.59
2019-05-30T06:03:12.620Z,100978.27
2019-05-30T06:05:52.678Z,100986.16
2019-05-30T06:08:10.124Z,100982.58
2019-05-30T06:10:37.908Z,100983.92
2019-05-30T06:13:05.709Z,100987.58
2019-05-30T06:15:33.488Z,100984.99
2019-05-30T06:18:01.230Z,100988.38
2019-05-30T06:20:28.969Z,100995.64
2019-05-30T06:22:56.737Z,100988.75
2019-05-30T06:25:27.709Z,100991.09
2019-05-30T06:27:54.740Z,100987.66
2019-05-30T06:30:22.855Z,100984.86
2019-05-30T06:32:50.640Z,100988.52
2019-05-30T06:35:18.752Z,100994.34
2019-05-30T06:37:46.664Z,100988.99
2019-05-30T06:40:15.572Z,100985.07
2019-05-30T06:42:43.318Z,100999.54
2019-05-30T06:45:11.535Z,100990.28
2019-05-30T06:47:39.309Z,100990.27
2019-05-30T06:50:07.889Z,100994.39
2019-05-30T06:52:35.642Z,100999.37
2019-05-30T06:55:03.805Z,100995.28
2019-05-30T06:57:31.592Z,100992.28
2019-05-30T06:59:59.351Z,100995.77
2019-05-30T07:02:28.349Z,100995.59
2019-05-30T07:04:57.066Z,101000.26
2019-05-30T07:07:25.479Z,101002.08
2019-05-30T07:09:54.477Z,100998.77
2019-05-30T07:12:22.900Z,100996.44
2019-05-30T07:14:50.796Z,101004.23
2019-05-30T07:17:18.664Z,100997.27
2019-05-30T07:19:46.429Z,100994.77
2019-05-30T07:22:14.418Z,100997.72
2019-05-30T07:24:42.447Z,100998.73
2019-05-30T07:27:10.324Z,101001.77
2019-05-30T07:29:38.046Z,101001.79
2019-05-30T07:32:05.823Z,101002.11
2019-05-30T07:34:34.285Z,101006.89
2019-05-30T07:37:02.091Z,101005.84
2019-05-30T07:39:33.275Z,101006.27
2019-05-30T07:42:06.377Z,101008.85
2019-05-30T07:44:30.792Z,101008.27
2019-05-30T07:46:58.729Z,101007.59
2019-05-30T07:49:26.491Z,101007.44
2019-05-30T07:51:54.272Z,101012.30
2019-05-30T07:54:22.044Z,101011.95
2019-05-30T07:56:49.791Z,101012.10
2019-05-30T07:59:17.537Z,101013.23
2019-05-30T08:01:45.305Z,101003.81
2019-05-30T08:04:13.108Z,101010.98
2019-05-30T08:06:40.868Z,101009.36
2019-05-30T08:09:08.626Z,101008.51
2019-05-30T08:11:36.374Z,101004.92
2019-05-30T08:14:04.159Z,100997.94
2019-05-30T08:16:31.952Z,100998.48
2019-05-30T08:18:59.702Z,100992.23
2019-05-30T08:21:27.802Z,100995.32
2019-05-30T08:23:55.799Z,100999.28
2019-05-30T08:26:23.571Z,100997.54
2019-05-30T08:28:51.386Z,100990.05
2019-05-30T08:31:19.146Z,100996.80
2019-05-30T08:33:47.530Z,100993.27
2019-05-30T08:36:15.572Z,100994.28
2019-05-30T08:38:43.449Z,100997.34
2019-05-30T08:41:11.202Z,100991.80
2019-05-30T08:43:39.681Z,100994.67
2019-05-30T08:46:07.721Z,100988.77
2019-05-30T08:48:36.223Z,100977.44
2019-05-30T08:51:04.273Z,100983.09
2019-05-30T08:53:32.694Z,100982.13
2019-05-30T08:56:00.568Z,100986.45
2019-05-30T08:58:28.452Z,100982.37
2019-05-30T09:00:56.338Z,100983.30
2019-05-30T09:03:24.098Z,100983.28
2019-05-30T09:06:02.642Z,100983.18
2019-05-30T09:08:21.536Z,100986.89
2019-05-30T09:10:50.134Z,100975.91
2019-05-30T09:13:18.097Z,100982.66
2019-05-30T09:15:47.009Z,100973.38
2019-05-30T09:18:14.973Z,100974.00
2019-05-30T09:20:43.749Z,100983.11
2019-05-30T09:23:11.735Z,100980.95
2019-05-30T09:25:40.021Z,100984.95
2019-05-30T09:28:08.015Z,100982.91
2019-05-30T09:30:35.993Z,100979.23
2019-05-30T09:33:03.930Z,100976.40
2019-05-30T09:35:31.757Z,100973.32
2019-05-30T09:37:59.531Z,100980.31
2019-05-30T09:40:27.610Z,100977.04
2019-05-30T09:42:55.400Z,100969.83
2019-05-30T09:45:23.893Z,100984.30
2019-05-30T09:47:51.880Z,100975.73
2019-05-30T09:50:20.134Z,100986.59
2019-05-30T09:52:49.180Z,100985.56
2019-05-30T09:55:17.898Z,100979.11
2019-05-30T09:57:45.905Z,100990.97
2019-05-30T10:00:16.029Z,100985.98
2019-05-30T10:02:44.853Z,100985.51
2019-05-30T10:05:15.903Z,100984.84
2019-05-30T10:07:45.436Z,100977.81
2019-05-30T10:10:14.128Z,100976.97
2019-05-30T10:12:42.033Z,100971.91
2019-05-30T10:15:11.440Z,100979.24
2019-05-30T10:17:39.489Z,100975.83
2019-05-30T10:20:08.823Z,100975.58
2019-05-30T10:22:36.730Z,100979.58
2019-05-30T10:25:05.215Z,100977.35
2019-05-30T10:27:33.748Z,100970.39
2019-05-30T10:30:04.434Z,100977.56
2019-05-30T10:32:32.229Z,100972.50
2019-05-30T10:34:59.998Z,100963.00
2019-05-30T10:37:27.762Z,100967.88
2019-05-30T10:39:58.363Z,100966.62
2019-05-30T10:42:25.374Z,100965.59
2019-05-30T10:44:54.571Z,100965.19
2019-05-30T10:47:22.702Z,100968.98
2019-05-30T10:49:51.480Z,100964.04
2019-05-30T10:52:19.516Z,100959.72
2019-05-30T10:54:49.379Z,100965.83
2019-05-30T10:57:17.600Z,100973.73
2019-05-30T10:59:46.147Z,100961.68
2019-05-30T11:02:15.178Z,100952.50
2019-05-30T11:04:43.014Z,100951.34
2019-05-30T11:08:03.891Z,100948.81
2019-05-30T11:10:38.813Z,100954.18
2019-05-30T11:13:09.089Z,100947.84
2019-05-30T11:15:37.224Z,100946.77
2019-05-30T11:18:05.125Z,100947.56
2019-05-30T11:20:32.952Z,100934.55
2019-05-30T11:23:00.681Z,100934.63
2019-05-30T11:25:28.484Z,100936.20
2019-05-30T11:27:56.871Z,100943.56
2019-05-30T11:30:25.038Z,100938.37
2019-05-30T11:32:55.207Z,100943.69
2019-05-30T11:35:23.344Z,100936.47
2019-05-30T11:37:53.097Z,100942.41
2019-05-30T11:40:21.424Z,100938.70
2019-05-30T11:42:49.358Z,100943.14
2019-05-30T11:45:17.680Z,100943.55
2019-05-30T11:47:45.538Z,100937.22
2019-05-30T11:50:14.058Z,100927.19
2019-05-30T11:52:42.144Z,100934.42
2019-05-30T11:55:11.379Z,100933.34
2019-05-30T11:57:40.419Z,100928.28
2019-05-30T12:00:09.910Z,100933.33
2019-05-30T12:02:37.840Z,100931.81
2019-05-30T12:05:06.541Z,100934.37
2019-05-30T12:07:36.696Z,100935.16
2019-05-30T12:10:06.112Z,100931.70
2019-05-30T12:12:34.094Z,100931.64
2019-05-30T12:15:02.275Z,100936.63
2019-05-30T12:17:31.296Z,100940.78
2019-05-30T12:19:59.587Z,100933.70
2019-05-30T12:22:27.473Z,100932.47
2019-05-30T12:24:55.870Z,100933.40
2019-05-30T12:27:24.839Z,100941.65
2019-05-30T12:29:52.984Z,100943.91
2019-05-30T12:32:21.859Z,100944.00
2019-05-30T12:34:49.880Z,100938.89
2019-05-30T12:37:17.708Z,100940.09
2019-05-30T12:39:45.460Z,100933.97
2019-05-30T12:42:15.135Z,100938.75
2019-05-30T12:44:42.950Z,100931.00
2019-05-30T12:47:12.579Z,100933.34
2019-05-30T12:49:40.401Z,100929.41
2019-05-30T12:52:08.203Z,100926.50
2019-05-30T12:54:37.911Z,100930.68
2019-05-30T12:57:06.896Z,100931.65
2019-05-30T12:59:35.072Z,100942.56
2019-05-30T13:02:03.127Z,100931.81
2019-05-30T13:04:31.165Z,100935.94
2019-05-30T13:06:59.390Z,100939.39
2019-05-30T13:09:27.309Z,100937.93
2019-05-30T13:11:56.307Z,100938.55
2019-05-30T13:14:24.322Z,100931.35
2019-05-30T13:16:52.170Z,100931.81
2019-05-30T13:19:20.011Z,100936.49
2019-05-30T13:21:47.784Z,100924.17
2019-05-30T13:24:15.574Z,100929.64
2019-05-30T13:26:43.420Z,100935.86
2019-05-30T13:29:13.009Z,100935.45
2019-05-30T13:31:40.788Z,100917.65
2019-05-30T13:34:08.574Z,100932.77
2019-05-30T13:36:36.370Z,100928.24
2019-05-30T13:39:07.462Z,100931.93
2019-05-30T13:41:35.447Z,100929.70
2019-05-30T13:44:06.243Z,100926.84
2019-05-30T13:46:32.965Z,100947.14
2019-05-30T13:49:00.891Z,100940.64
2019-05-30T13:51:28.983Z,100933.73
2019-05-30T13:53:56.939Z,100939.30
2019-05-30T13:56:24.727Z,100945.98
2019-05-30T13:58:52.548Z,100936.58
2019-05-30T14:01:20.925Z,100929.69
2019-05-30T14:03:48.949Z,100932.78
2019-05-30T14:06:16.740Z,100934.02
2019-05-30T14:08:44.504Z,100930.72
2019-05-30T14:11:12.323Z,100927.06
2019-05-30T14:13:40.107Z,100930.94
2019-05-30T14:16:08.844Z,100931.07
2019-05-30T14:18:36.919Z,100930.05
2019-05-30T14:21:05.202Z,100927.89
2019-05-30T14:23:33.006Z,100919.47
2019-05-30T14:26:01.229Z,100929.50
2019-05-30T14:28:29.346Z,100927.18
2019-05-30T14:30:57.341Z,100925.47
2019-05-30T14:33:26.974Z,100933.67
2019-05-30T14:35:54.754Z,100924.27
2019-05-30T14:38:22.502Z,100920.45
2019-05-30T14:40:50.372Z,100919.75
2019-05-30T14:43:19.943Z,100917.17
2019-05-30T14:45:47.783Z,100920.86
2019-05-30T14:48:16.882Z,100924.08
2019-05-30T14:50:44.879Z,100915.66
2019-05-30T14:53:14.022Z,100923.22
2019-05-30T14:55:41.798Z,100920.48
2019-05-30T14:58:09.636Z,100927.00
2019-05-30T15:00:37.580Z,100935.83
2019-05-30T15:03:09.156Z,100936.31
2019-05-30T15:05:35.413Z,100927.99
2019-05-30T15:08:04.551Z,100927.34
2019-05-30T15:10:32.578Z,100919.22
2019-05-30T15:13:01.402Z,100917.59
2019-05-30T15:15:29.381Z,100923.34
2019-05-30T15:17:57.135Z,100922.52
2019-05-30T15:20:24.857Z,100931.47
2019-05-30T15:22:52.601Z,100918.00
2019-05-30T15:25:20.370Z,100919.11
2019-05-30T15:27:48.125Z,100914.85
2019-05-30T15:30:16.833Z,100921.09
2019-05-30T15:32:44.888Z,100914.80
2019-05-30T15:35:15.212Z,100917.63
2019-05-30T15:37:43.260Z,100924.87
2019-05-30T15:40:13.200Z,100923.70
2019-05-30T15:42:40.985Z,100923.89
2019-05-30T15:45:10.107Z,100923.76
2019-05-30T15:47:37.981Z,100924.02
2019-05-30T15:50:06.357Z,100925.64
2019-05-30T15:52:34.106Z,100918.51
2019-05-30T15:55:01.879Z,100919.88
2019-05-30T15:57:29.697Z,100914.48
2019-05-30T15:59:57.466Z,100908.80
2019-05-30T16:02:25.752Z,100917.16
2019-05-30T16:04:53.513Z,100907.52
2019-05-30T16:07:21.283Z,100908.37
2019-05-30T16:09:49.040Z,100904.98
2019-05-30T16:12:17.165Z,100906.34
2019-05-30T16:14:44.994Z,100895.30
2019-05-30T16:17:13.827Z,100895.02
2019-05-30T16:19:41.730Z,100907.87
2019-05-30T16:22:09.476Z,100902.24
2019-05-30T16:24:37.236Z,100901.89
2019-05-30T16:27:05.041Z,100900.47
2019-05-30T16:29:32.865Z,100897.03
2019-05-30T16:32:00.598Z,100898.68
2019-05-30T16:34:28.352Z,100901.61
2019-05-30T16:36:56.211Z,100893.50
2019-05-30T16:39:23.951Z,100895.22
2019-05-30T16:41:51.746Z,100894.38
2019-05-30T16:44:20.427Z,100892.83
2019-05-30T16:46:48.581Z,100883.11
2019-05-30T16:49:16.466Z,100883.33
2019-05-30T16:51:44.281Z,100877.83
2019-05-30T16:54:12.107Z,100873.23
2019-05-30T16:56:39.879Z,100874.95
2019-05-30T16:59:07.664Z,100881.34
2019-05-30T17:01:35.534Z,100884.34
2019-05-30T17:04:03.353Z,100883.40
2019-05-30T17:06:31.103Z,100878.11
2019-05-30T17:08:58.851Z,100872.39
2019-05-30T17:11:26.625Z,100884.47
2019-05-30T17:13:54.681Z,100881.68
2019-05-30T17:16:22.433Z,100883.52
2019-05-30T17:18:50.168Z,100889.66
2019-05-30T17:21:18.340Z,100883.14
2019-05-30T17:23:46.375Z,100878.67
2019-05-30T17:26:14.164Z,100889.99
2019-05-30T17:28:41.915Z,100894.17
2019-05-30T17:31:09.691Z,100891.41
2019-05-30T17:33:37.457Z,100896.29
2019-05-30T17:36:05.324Z,100898.86
2019-05-30T17:38:33.133Z,100899.61
2019-05-30T17:41:00.939Z,100900.30
2019-05-30T17:43:29.299Z,100903.22
2019-05-30T17:45:57.345Z,100903.37
2019-05-30T17:48:25.690Z,100905.95
2019-05-30T17:50:53.569Z,100906.67
2019-05-30T17:53:21.702Z,100904.19
2019-05-30T17:55:49.609Z,100910.17
2019-05-30T17:58:17.343Z,100907.45
2019-05-30T18:00:45.129Z,100910.55
2019-05-30T18:03:12.875Z,100911.25
2019-05-30T18:05:40.635Z,100907.38
2019-05-30T18:08:08.418Z,100912.78
2019-05-30T18:10:36.220Z,100912.33
2019-05-30T18:13:04.293Z,100908.95
2019-05-30T18:15:32.509Z,100907.30
2019-05-30T18:18:00.480Z,100913.14
2019-05-30T18:20:29.336Z,100901.84
2019-05-30T18:22:57.254Z,100905.20
2019-05-30T18:25:25.629Z,100906.55
2019-05-30T18:27:53.625Z,100908.14
2019-05-30T18:30:37.177Z,100917.78
2019-05-30T18:33:04.973Z,100908.89
2019-05-30T18:35:32.707Z,100916.70
2019-05-30T18:38:01.988Z,100912.30
2019-05-30T18:40:33.104Z,100911.29
2019-05-30T18:43:01.210Z,100914.83
2019-05-30T18:45:38.918Z,100916.33
2019-05-30T18:48:07.470Z,100916.80
2019-05-30T18:50:35.727Z,100907.73
2019-05-30T18:53:04.110Z,100912.25
2019-05-30T18:55:32.645Z,100904.44
2019-05-30T18:58:00.561Z,100910.72
2019-05-30T19:00:29.138Z,100912.38
2019-05-30T19:02:57.438Z,100920.63
2019-05-30T19:05:26.489Z,100916.88
2019-05-30T19:07:54.501Z,100914.78
2019-05-30T19:10:22.264Z,100917.85
2019-05-30T19:12:50.146Z,100917.16
2019-05-30T19:15:18.586Z,100918.17
2019-05-30T19:17:46.404Z,100914.83
2019-05-30T19:20:15.038Z,100922.17
2019-05-30T19:22:42.848Z,100923.18
2019-05-30T19:25:11.081Z,100924.84
2019-05-30T19:27:38.886Z,100928.33
2019-05-30T19:30:08.004Z,100931.69
2019-05-30T19:32:36.947Z,100936.50
2019-05-30T19:35:06.061Z,100937.20
2019-05-30T19:37:35.250Z,100939.12
2019-05-30T19:40:05.775Z,100939.81
2019-05-30T19:42:33.716Z,100937.69
2019-05-30T19:45:05.311Z,100946.61
2019-05-30T19:47:34.578Z,100946.61
2019-05-30T19:50:03.347Z,100949.64
2019-05-30T19:52:32.622Z,100959.93
2019-05-30T19:55:00.690Z,100959.97
2019-05-30T19:57:29.373Z,100962.41
2019-05-30T19:59:57.596Z,100960.89
2019-05-30T20:02:25.457Z,100964.42
2019-05-30T20:04:53.381Z,100960.65
2019-05-30T20:07:21.333Z,100972.31
2019-05-30T20:10:00.776Z,100970.98
2019-05-30T20:12:19.669Z,100975.80
2019-05-30T20:14:47.438Z,100978.97
2019-05-30T20:17:15.252Z,100980.13
2019-05-30T20:19:43.104Z,100978.83
2019-05-30T20:22:11.006Z,100986.13
2019-05-30T20:24:39.207Z,100986.64
2019-05-30T20:27:07.020Z,100986.49
2019-05-30T20:29:35.033Z,100988.50
2019-05-30T20:32:02.963Z,100993.33
2019-05-30T20:34:30.751Z,100997.97
2019-05-30T20:36:58.971Z,100999.78
2019-05-30T20:39:27.191Z,100991.67
2019-05-30T20:41:55.621Z,100991.67
2019-05-30T20:44:24.037Z,100986.37
2019-05-30T20:46:52.174Z,100976.47
2019-05-30T20:49:20.456Z,100978.12
2019-05-30T20:51:48.178Z,100982.59
2019-05-30T20:54:16.470Z,100988.22
2019-05-30T20:56:48.622Z,100993.75
2019-05-30T20:59:14.255Z,100992.39
2019-05-30T21:01:45.945Z,100989.92
2019-05-30T21:04:14.422Z,100996.41
2019-05-30T21:06:43.150Z,100993.92
2019-05-30T21:09:27.714Z,100991.94
2019-05-30T21:11:44.646Z,100993.77
2019-05-30T21:14:13.212Z,100995.92
2019-05-30T21:16:44.249Z,100993.91
2019-05-30T21:19:12.664Z,101001.41
2019-05-30T21:21:41.136Z,101007.73
2019-05-30T21:24:10.589Z,100995.75
2019-05-30T21:26:38.634Z,100998.69
2019-05-30T21:29:06.589Z,101000.88
2019-05-30T21:31:34.798Z,100996.05
2019-05-30T21:34:02.632Z,100993.73
2019-05-30T21:36:30.379Z,100999.72
2019-05-30T21:38:58.160Z,101010.07
2019-05-30T21:41:25.945Z,101006.39
2019-05-30T21:43:53.701Z,101001.41
2019-05-30T21:46:21.490Z,101013.23
2019-05-30T21:48:49.248Z,101013.55
2019-05-30T21:51:16.993Z,101007.06
2019-05-30T21:53:45.633Z,101010.39
2019-05-30T21:56:13.577Z,101005.73
2019-05-30T21:58:42.127Z,101005.42
2019-05-30T22:01:33.261Z,101010.46
2019-05-30T22:04:01.662Z,101000.83
2019-05-30T22:06:30.036Z,101007.98
2019-05-30T22:08:58.075Z,101008.80
2019-05-30T22:11:26.009Z,101002.85
2019-05-30T22:13:53.812Z,101007.84
2019-05-30T22:16:21.589Z,101003.67
2019-05-30T22:18:50.088Z,101005.84
2019-05-30T22:21:17.993Z,101010.86
2019-05-30T22:23:46.263Z,101012.38
2019-05-30T22:26:14.121Z,101009.55
2019-05-30T22:28:42.310Z,101009.20
2019-05-30T22:31:10.233Z,101007.03
2019-05-30T22:33:37.956Z,101005.84
2019-05-30T22:36:05.696Z,101003.54
2019-05-30T22:38:33.502Z,101001.52
2019-05-30T22:41:01.280Z,101000.71
2019-05-30T22:43:29.152Z,101001.04
2019-05-30T22:45:56.961Z,101000.86
2019-05-30T22:48:24.780Z,100997.87
2019-05-30T22:50:52.908Z,101007.88
2019-05-30T22:53:20.758Z,101003.23
2019-05-30T22:55:49.159Z,101005.42
2019-05-30T22:58:17.054Z,101010.56
2019-05-30T23:00:45.991Z,101007.91
2019-05-30T23:03:13.992Z,101006.89
2019-05-30T23:05:41.743Z,101017.89
2019-05-30T23:08:09.688Z,101009.72
2019-05-30T23:10:37.419Z,101008.88
2019-05-30T23:13:05.192Z,101007.25
2019-05-30T23:15:32.943Z,101010.22
2019-05-30T23:18:00.716Z,101014.70
2019-05-30T23:20:28.505Z,101016.53
2019-05-30T23:22:57.148Z,101011.05
2019-05-30T23:25:24.962Z,101010.40
2019-05-30T23:27:53.613Z,101004.23
2019-05-30T23:30:22.600Z,101009.91
2019-05-30T23:32:50.531Z,101005.41
2019-05-30T23:35:18.370Z,101006.89
2019-05-30T23:37:46.270Z,101012.55
2019-05-30T23:40:14.957Z,101013.19
2019-05-30T23:42:42.766Z,101016.48
2019-05-30T23:45:10.713Z,101014.03
2019-05-30T23:47:38.506Z,101011.03
2019-05-30T23:50:06.991Z,101007.88
2019-05-30T23:52:34.801Z,101004.89
2019-05-30T23:55:02.769Z,101007.72
2019-05-30T23:57:30.565Z,100999.89
2019-05-30T23:59:59.098Z,101000.91
